createdAt,value
2023-01-19T00:00:59.530Z,93420.56
2023-01-19T00:03:26.634Z,93424.16
2023-01-19T00:05:54.194Z,93431.13
2023-01-19T00:08:21.345Z,93462.47
2023-01-19T00:10:51.889Z,93451.31
2023-01-19T00:13:19.386Z,93481.72
2023-01-19T00:15:47.301Z,93473.63
2023-01-19T00:18:14.561Z,93502.19
2023-01-19T00:20:42.348Z,93479.81
2023-01-19T00:23:09.802Z,93471.38
2023-01-19T00:25:42.907Z,93488.69
2023-01-19T00:28:16.504Z,93448.19
2023-01-19T00:30:44.495Z,93498.38
2023-01-19T00:33:16.235Z,93471.47
2023-01-19T00:35:43.911Z,93481.25
2023-01-19T00:38:12.612Z,93518.59
2023-01-19T00:40:39.826Z,93479.66
2023-01-19T00:43:06.818Z,93458.50
2023-01-19T00:45:34.101Z,93469.41
2023-01-19T00:48:01.482Z,93475.16
2023-01-19T00:50:30.126Z,93504.16
2023-01-19T00:53:01.270Z,93493.81
2023-01-19T00:55:29.387Z,93490.66
2023-01-19T00:57:56.911Z,93466.25
2023-01-19T01:00:25.389Z,93482.81
2023-01-19T01:02:53.926Z,93483.16
2023-01-19T01:05:22.735Z,93508.25
2023-01-19T01:07:50.826Z,93527.69
2023-01-19T01:10:23.437Z,93454.84
2023-01-19T01:12:55.529Z,93515.84
2023-01-19T01:15:38.226Z,93457.28
2023-01-19T01:18:23.244Z,93478.91
2023-01-19T01:20:50.240Z,93470.38
2023-01-19T01:23:23.177Z,93475.34
2023-01-19T01:25:50.292Z,93516.28
2023-01-19T01:28:17.268Z,93499.72
2023-01-19T01:30:44.308Z,93506.53
2023-01-19T01:33:40.670Z,93503.38
2023-01-19T01:36:09.468Z,93497.97
2023-01-19T01:38:51.493Z,93465.47
2023-01-19T01:41:19.716Z,93502.16
2023-01-19T01:43:58.374Z,93497.19
2023-01-19T01:46:27.062Z,93501.38
2023-01-19T01:49:08.022Z,93502.38
2023-01-19T01:51:40.535Z,93497.19
2023-01-19T01:54:26.661Z,93497.28
2023-01-19T01:56:57.737Z,93488.84
2023-01-19T01:59:41.671Z,93515.50
2023-01-19T02:02:34.898Z,93492.22
2023-01-19T02:05:08.073Z,93469.94
2023-01-19T02:08:04.616Z,93471.94
2023-01-19T02:10:50.787Z,93469.66
2023-01-19T02:13:21.467Z,93463.47
2023-01-19T02:15:58.005Z,93437.72
2023-01-19T02:18:28.697Z,93460.22
2023-01-19T02:21:43.125Z,93469.78
2023-01-19T02:24:11.047Z,93440.06
2023-01-19T02:26:44.471Z,93438.84
2023-01-19T02:29:18.681Z,93441.22
2023-01-19T02:31:46.057Z,93469.34
2023-01-19T02:34:17.138Z,93453.69
2023-01-19T02:37:06.883Z,93455.69
2023-01-19T02:39:39.379Z,93467.63
2023-01-19T02:42:15.659Z,93469.31
2023-01-19T02:44:47.078Z,93430.69
2023-01-19T02:47:14.301Z,93433.81
2023-01-19T02:49:41.257Z,93439.66
2023-01-19T02:52:17.843Z,93460.16
2023-01-19T02:54:58.225Z,93442.38
2023-01-19T02:58:10.064Z,93450.13
2023-01-19T03:00:58.666Z,93435.81
2023-01-19T03:03:46.472Z,93439.66
2023-01-19T03:06:33.757Z,93424.94
2023-01-19T03:09:32.700Z,93433.38
2023-01-19T03:12:29.352Z,93429.13
2023-01-19T03:15:02.495Z,93430.69
2023-01-19T03:17:32.755Z,93436.00
2023-01-19T03:20:00.490Z,93425.13
2023-01-19T03:22:29.858Z,93434.34
2023-01-19T03:25:01.268Z,93447.59
2023-01-19T03:27:41.286Z,93443.84
2023-01-19T03:30:13.448Z,93439.22
2023-01-19T03:32:48.509Z,93417.63
2023-01-19T03:35:18.461Z,93429.19
2023-01-19T03:37:48.730Z,93406.09
2023-01-19T03:40:17.227Z,93444.63
2023-01-19T03:42:45.286Z,93428.41
2023-01-19T03:45:13.869Z,93458.56
2023-01-19T03:47:41.529Z,93420.66
2023-01-19T03:50:14.554Z,93411.34
2023-01-19T03:52:41.431Z,93435.66
2023-01-19T03:55:09.935Z,93446.91
2023-01-19T03:57:37.506Z,93430.59
2023-01-19T04:00:05.202Z,93430.25
2023-01-19T04:02:39.195Z,93427.56
2023-01-19T04:05:06.869Z,93439.84
2023-01-19T04:07:33.867Z,93442.09
2023-01-19T04:10:00.909Z,93429.38
2023-01-19T04:12:27.806Z,93437.22
2023-01-19T04:14:54.791Z,93433.31
2023-01-19T04:17:21.728Z,93425.47
2023-01-19T04:19:48.625Z,93434.00
2023-01-19T04:22:15.547Z,93440.63
2023-01-19T04:24:42.539Z,93405.94
2023-01-19T04:27:09.600Z,93428.34
2023-01-19T04:29:36.524Z,93419.09
2023-01-19T04:32:03.657Z,93417.63
2023-01-19T04:34:30.620Z,93435.91
2023-01-19T04:36:57.654Z,93458.78
2023-01-19T04:39:24.728Z,93424.06
2023-01-19T04:41:54.699Z,93449.97
2023-01-19T04:44:21.671Z,93423.38
2023-01-19T04:46:48.846Z,93452.66
2023-01-19T04:49:15.812Z,93451.97
2023-01-19T04:51:42.851Z,93450.50
2023-01-19T04:54:10.176Z,93456.69
2023-01-19T04:56:37.234Z,93472.09
2023-01-19T04:59:04.314Z,93469.84
2023-01-19T05:01:31.368Z,93509.25
2023-01-19T05:04:03.787Z,93503.94
2023-01-19T05:06:30.977Z,93506.41
2023-01-19T05:08:58.037Z,93506.72
2023-01-19T05:11:25.285Z,93553.03
2023-01-19T05:13:53.057Z,93521.03
2023-01-19T05:16:20.082Z,93508.75
2023-01-19T05:18:47.101Z,93515.19
2023-01-19T05:21:14.555Z,93510.03
2023-01-19T05:23:41.853Z,93531.22
2023-01-19T05:26:10.340Z,93522.25
2023-01-19T05:28:38.199Z,93539.59
2023-01-19T05:31:05.556Z,93518.66
2023-01-19T05:33:32.591Z,93510.56
2023-01-19T05:35:59.599Z,93523.63
2023-01-19T05:38:35.159Z,93514.81
2023-01-19T05:41:02.872Z,93518.53
2023-01-19T05:43:29.953Z,93529.47
2023-01-19T05:45:56.952Z,93539.03
2023-01-19T05:48:24.026Z,93539.03
2023-01-19T05:50:51.019Z,93551.75
2023-01-19T05:53:17.982Z,93523.63
2023-01-19T05:55:45.142Z,93533.75
2023-01-19T05:58:12.224Z,93510.13
2023-01-19T06:00:39.178Z,93530.94
2023-01-19T06:03:06.797Z,93569.31
2023-01-19T06:05:34.142Z,93538.53
2023-01-19T06:08:02.173Z,93532.09
2023-01-19T06:10:29.187Z,93546.41
2023-01-19T06:12:56.223Z,93533.22
2023-01-19T06:15:23.258Z,93540.03
2023-01-19T06:17:50.279Z,93558.94
2023-01-19T06:20:17.545Z,93544.56
2023-01-19T06:22:44.550Z,93554.75
2023-01-19T06:25:13.211Z,93526.94
2023-01-19T06:27:44.609Z,93526.06
2023-01-19T06:30:12.647Z,93529.66
2023-01-19T06:32:42.479Z,93540.91
2023-01-19T06:35:11.277Z,93537.06
2023-01-19T06:37:38.326Z,93524.78
2023-01-19T06:40:06.812Z,93527.13
2023-01-19T06:42:34.666Z,93561.91
2023-01-19T06:45:01.780Z,93546.47
2023-01-19T06:47:28.864Z,93517.22
2023-01-19T06:49:56.125Z,93543.44
2023-01-19T06:52:23.226Z,93536.81
2023-01-19T06:54:50.552Z,93557.75
2023-01-19T06:57:17.741Z,93548.53
2023-01-19T06:59:45.049Z,93555.16
2023-01-19T07:02:26.336Z,93539.00
2023-01-19T07:04:56.007Z,93534.03
2023-01-19T07:07:23.650Z,93519.72
2023-01-19T07:09:53.838Z,93519.81
2023-01-19T07:12:22.043Z,93522.97
2023-01-19T07:14:50.158Z,93531.50
2023-01-19T07:17:17.331Z,93540.16
2023-01-19T07:19:44.676Z,93535.72
2023-01-19T07:22:11.826Z,93533.44
2023-01-19T07:24:39.099Z,93539.78
2023-01-19T07:27:06.148Z,93552.72
2023-01-19T07:29:33.141Z,93528.53
2023-01-19T07:32:00.297Z,93539.63
2023-01-19T07:34:27.245Z,93527.38
2023-01-19T07:36:56.404Z,93513.94
2023-01-19T07:39:24.027Z,93546.28
2023-01-19T07:41:51.189Z,93529.25
2023-01-19T07:44:18.888Z,93548.34
2023-01-19T07:46:45.922Z,93549.63
2023-01-19T07:49:13.046Z,93550.50
2023-01-19T07:51:40.053Z,93528.56
2023-01-19T07:54:08.668Z,93529.44
2023-01-19T07:56:38.817Z,93536.13
2023-01-19T07:59:07.581Z,93544.84
2023-01-19T08:01:34.928Z,93552.28
2023-01-19T08:04:02.092Z,93552.78
2023-01-19T08:06:39.890Z,93578.38
2023-01-19T08:09:07.337Z,93568.06
2023-01-19T08:11:34.505Z,93570.47
2023-01-19T08:14:01.656Z,93543.16
2023-01-19T08:16:28.654Z,93574.25
2023-01-19T08:18:55.665Z,93576.94
2023-01-19T08:21:22.909Z,93562.00
2023-01-19T08:23:54.433Z,93575.25
2023-01-19T08:26:39.165Z,93573.81
2023-01-19T08:29:06.274Z,93586.03
2023-01-19T08:31:33.564Z,93583.03
2023-01-19T08:34:00.783Z,93582.66
2023-01-19T08:36:28.017Z,93595.16
2023-01-19T08:38:55.035Z,93590.25
2023-01-19T08:41:22.545Z,93586.81
2023-01-19T08:43:50.048Z,93583.09
2023-01-19T08:46:17.824Z,93590.94
2023-01-19T08:48:51.409Z,93607.22
2023-01-19T08:51:22.910Z,93580.53
2023-01-19T08:53:50.088Z,93607.28
2023-01-19T08:56:20.454Z,93580.94
2023-01-19T08:58:53.627Z,93590.34
2023-01-19T09:01:30.481Z,93609.41
2023-01-19T09:03:57.641Z,93590.34
2023-01-19T09:06:25.620Z,93588.16
2023-01-19T09:08:52.725Z,93589.13
2023-01-19T09:11:20.067Z,93590.69
2023-01-19T09:13:47.081Z,93579.78
2023-01-19T09:16:16.137Z,93611.44
2023-01-19T09:18:43.278Z,93610.66
2023-01-19T09:21:10.429Z,93624.91
2023-01-19T09:23:37.590Z,93610.56
2023-01-19T09:26:06.335Z,93593.09
2023-01-19T09:28:34.225Z,93617.66
2023-01-19T09:31:06.203Z,93596.03
2023-01-19T09:33:34.043Z,93620.34
2023-01-19T09:36:02.249Z,93611.66
2023-01-19T09:38:33.250Z,93598.53
2023-01-19T09:41:00.506Z,93606.97
2023-01-19T09:44:00.705Z,93591.41
2023-01-19T09:46:35.396Z,93600.81
2023-01-19T09:49:06.980Z,93587.00
2023-01-19T09:51:38.132Z,93603.19
2023-01-19T09:54:29.529Z,93591.94
2023-01-19T09:56:56.487Z,93604.50
2023-01-19T09:59:25.932Z,93581.50
2023-01-19T10:02:05.923Z,93586.56
2023-01-19T10:05:13.605Z,93569.84
2023-01-19T10:08:25.644Z,93529.44
2023-01-19T10:10:55.287Z,93573.50
2023-01-19T10:13:54.569Z,93569.78
2023-01-19T10:16:51.359Z,93573.69
2023-01-19T10:19:26.093Z,93570.38
2023-01-19T10:21:56.207Z,93552.91
2023-01-19T10:24:29.399Z,93561.47
2023-01-19T10:26:57.223Z,93550.38
2023-01-19T10:29:39.423Z,93555.03
2023-01-19T10:32:14.273Z,93561.91
2023-01-19T10:34:41.932Z,93556.78
2023-01-19T10:37:25.388Z,93540.28
2023-01-19T10:39:55.750Z,93540.97
2023-01-19T10:42:23.180Z,93564.16
2023-01-19T10:44:50.575Z,93545.91
2023-01-19T10:47:23.627Z,93549.34
2023-01-19T10:49:50.940Z,93550.19
2023-01-19T10:52:37.170Z,93532.41
2023-01-19T10:55:07.202Z,93546.53
2023-01-19T10:57:41.127Z,93548.50
2023-01-19T11:00:38.633Z,93587.97
2023-01-19T11:03:25.030Z,93541.47
2023-01-19T11:05:52.351Z,93530.41
2023-01-19T11:08:30.552Z,93537.22
2023-01-19T11:11:03.986Z,93492.97
2023-01-19T11:13:32.267Z,93505.28
2023-01-19T11:16:30.587Z,93515.41
2023-01-19T11:18:58.956Z,93519.38
2023-01-19T11:21:27.965Z,93524.06
2023-01-19T11:24:00.914Z,93504.09
2023-01-19T11:26:33.671Z,93497.31
2023-01-19T11:29:03.534Z,93516.91
2023-01-19T11:31:35.541Z,93513.00
2023-01-19T11:34:05.690Z,93516.31
2023-01-19T11:36:36.006Z,93513.91
2023-01-19T11:39:24.552Z,93525.88
2023-01-19T11:41:55.684Z,93525.00
2023-01-19T11:44:25.506Z,93509.84
2023-01-19T11:46:56.966Z,93518.66
2023-01-19T11:49:39.182Z,93531.03
2023-01-19T11:52:26.158Z,93495.41
2023-01-19T11:55:03.922Z,93522.97
2023-01-19T11:57:30.917Z,93506.41
2023-01-19T12:00:17.852Z,93493.75
2023-01-19T12:02:47.907Z,93502.91
2023-01-19T12:05:20.215Z,93519.66
2023-01-19T12:07:49.582Z,93509.28
2023-01-19T12:10:31.368Z,93498.13
2023-01-19T12:12:59.601Z,93510.97
2023-01-19T12:15:39.290Z,93493.88
2023-01-19T12:18:12.748Z,93498.34
2023-01-19T12:20:47.599Z,93504.84
2023-01-19T12:24:01.585Z,93501.72
2023-01-19T12:26:52.633Z,93519.75
2023-01-19T12:29:22.665Z,93494.19
2023-01-19T12:32:18.375Z,93491.59
2023-01-19T12:34:50.251Z,93506.41
2023-01-19T12:37:47.891Z,93504.50
2023-01-19T12:40:28.385Z,93510.69
2023-01-19T12:43:05.614Z,93513.00
2023-01-19T12:45:35.433Z,93500.59
2023-01-19T12:48:04.642Z,93492.81
2023-01-19T12:50:38.110Z,93501.81
2023-01-19T12:53:16.137Z,93512.34
2023-01-19T12:55:46.900Z,93506.19
2023-01-19T12:58:21.818Z,93511.56
2023-01-19T13:00:50.835Z,93505.28
2023-01-19T13:03:45.940Z,93508.38
2023-01-19T13:06:13.494Z,93498.25
2023-01-19T13:09:00.492Z,93504.84
2023-01-19T13:11:32.617Z,93489.69
2023-01-19T13:14:34.576Z,93493.94
2023-01-19T13:17:08.286Z,93484.25
2023-01-19T13:19:52.353Z,93486.53
2023-01-19T13:23:07.106Z,93491.94
2023-01-19T13:25:35.825Z,93467.16
2023-01-19T13:28:09.529Z,93477.59
2023-01-19T13:30:37.679Z,93474.22
2023-01-19T13:33:15.729Z,93469.84
2023-01-19T13:35:51.656Z,93461.63
2023-01-19T13:38:19.488Z,93457.53
2023-01-19T13:40:47.078Z,93472.88
2023-01-19T13:43:22.168Z,93469.59
2023-01-19T13:45:53.471Z,93460.44
2023-01-19T13:48:22.565Z,93459.78
2023-01-19T13:51:28.912Z,93457.97
2023-01-19T13:53:57.579Z,93470.56
2023-01-19T13:56:27.956Z,93468.69
2023-01-19T13:59:10.955Z,93473.78
2023-01-19T14:01:40.011Z,93475.25
2023-01-19T14:04:25.711Z,93486.94
2023-01-19T14:06:55.835Z,93471.41
2023-01-19T14:09:23.457Z,93474.34
2023-01-19T14:12:14.453Z,93445.25
2023-01-19T14:14:43.745Z,93471.28
2023-01-19T14:17:28.177Z,93491.53
2023-01-19T14:20:01.128Z,93484.66
2023-01-19T14:22:43.630Z,93502.25
2023-01-19T14:25:31.972Z,93493.88
2023-01-19T14:28:35.630Z,93492.94
2023-01-19T14:31:18.112Z,93504.75
2023-01-19T14:33:47.234Z,93491.88
2023-01-19T14:36:36.469Z,93501.06
2023-01-19T14:39:04.025Z,93509.84
2023-01-19T14:41:38.938Z,93503.94
2023-01-19T14:44:10.847Z,93501.56
2023-01-19T14:46:38.867Z,93508.72
2023-01-19T14:49:07.185Z,93505.88
2023-01-19T14:51:34.527Z,93513.03
2023-01-19T14:54:03.021Z,93514.44
2023-01-19T14:56:32.340Z,93515.16
2023-01-19T14:59:01.845Z,93526.75
2023-01-19T15:01:29.433Z,93519.75
2023-01-19T15:03:59.607Z,93525.19
2023-01-19T15:06:26.956Z,93528.25
2023-01-19T15:08:54.576Z,93535.19
2023-01-19T15:11:34.201Z,93528.88
2023-01-19T15:14:02.555Z,93531.59
2023-01-19T15:16:39.583Z,93532.31
2023-01-19T15:19:06.675Z,93557.72
2023-01-19T15:21:33.666Z,93565.31
2023-01-19T15:24:01.155Z,93573.19
2023-01-19T15:26:28.165Z,93571.81
2023-01-19T15:28:56.693Z,93563.09
2023-01-19T15:31:26.212Z,93543.97
2023-01-19T15:33:53.571Z,93538.47
2023-01-19T15:36:22.411Z,93549.25
2023-01-19T15:38:51.367Z,93536.06
2023-01-19T15:41:25.045Z,93555.03
2023-01-19T15:43:52.300Z,93553.38
2023-01-19T15:46:20.971Z,93569.13
2023-01-19T15:48:48.715Z,93573.56
2023-01-19T15:51:19.491Z,93576.56
2023-01-19T15:53:47.204Z,93578.63
2023-01-19T15:56:16.578Z,93591.63
2023-01-19T15:58:44.188Z,93606.13
2023-01-19T16:01:16.878Z,93607.44
2023-01-19T16:03:44.619Z,93595.31
2023-01-19T16:06:13.138Z,93615.72
2023-01-19T16:08:40.368Z,93631.09
2023-01-19T16:11:14.206Z,93645.75
2023-01-19T16:13:44.128Z,93649.47
2023-01-19T16:16:17.423Z,93657.16
2023-01-19T16:18:44.902Z,93655.84
2023-01-19T16:21:12.135Z,93667.63
2023-01-19T16:23:39.184Z,93669.66
2023-01-19T16:26:09.074Z,93677.59
2023-01-19T16:28:38.460Z,93695.41
2023-01-19T16:31:05.687Z,93718.31
2023-01-19T16:33:33.387Z,93728.50
2023-01-19T16:36:19.463Z,93720.69
2023-01-19T16:38:47.680Z,93716.44
2023-01-19T16:41:14.633Z,93717.66
2023-01-19T16:43:42.210Z,93709.53
2023-01-19T16:46:18.621Z,93723.81
2023-01-19T16:48:45.607Z,93730.72
2023-01-19T16:51:14.611Z,93745.56
2023-01-19T16:53:42.943Z,93760.50
2023-01-19T16:56:13.952Z,93753.41
2023-01-19T16:58:43.422Z,93749.66
2023-01-19T17:01:17.243Z,93747.03
2023-01-19T17:03:45.719Z,93754.56
2023-01-19T17:06:15.761Z,93751.56
2023-01-19T17:08:43.666Z,93755.63
2023-01-19T17:11:32.488Z,93740.50
2023-01-19T17:14:17.126Z,93700.09
2023-01-19T17:16:46.138Z,93685.91
2023-01-19T17:19:16.895Z,93688.97
2023-01-19T17:21:46.136Z,93708.63
2023-01-19T17:24:13.160Z,93700.28
2023-01-19T17:26:40.275Z,93705.53
2023-01-19T17:29:10.720Z,93705.88
2023-01-19T17:31:52.451Z,93697.94
2023-01-19T17:34:21.055Z,93680.25
2023-01-19T17:36:51.293Z,93676.94
2023-01-19T17:39:20.102Z,93658.00
2023-01-19T17:41:49.450Z,93701.03
2023-01-19T17:44:19.229Z,93708.78
2023-01-19T17:46:46.998Z,93729.50
2023-01-19T17:49:13.895Z,93728.84
2023-01-19T17:51:40.838Z,93754.19
2023-01-19T17:54:07.816Z,93746.28
2023-01-19T17:56:37.690Z,93746.94
2023-01-19T17:59:07.502Z,93762.13
2023-01-19T18:01:38.403Z,93743.47
2023-01-19T18:04:06.325Z,93764.06
2023-01-19T18:06:33.908Z,93758.84
2023-01-19T18:09:00.861Z,93765.16
2023-01-19T18:11:28.074Z,93773.38
2023-01-19T18:13:55.162Z,93784.63
2023-01-19T18:16:30.409Z,93778.97
2023-01-19T18:18:58.279Z,93778.16
2023-01-19T18:21:28.318Z,93778.34
2023-01-19T18:26:49.136Z,93802.69
2023-01-19T18:29:20.289Z,93806.00
2023-01-19T18:31:47.216Z,93829.22
2023-01-19T18:34:15.779Z,93815.81
2023-01-19T18:36:42.842Z,93807.25
2023-01-19T18:39:09.932Z,93772.00
2023-01-19T18:41:42.364Z,93777.69
2023-01-19T18:44:10.368Z,93786.03
2023-01-19T18:46:39.209Z,93757.75
2023-01-19T18:49:06.670Z,93773.50
2023-01-19T18:51:33.798Z,93774.16
2023-01-19T18:54:00.864Z,93773.19
2023-01-19T18:56:28.170Z,93774.13
2023-01-19T18:58:55.341Z,93779.34
2023-01-19T19:01:38.342Z,93781.22
2023-01-19T19:04:05.887Z,93784.81
2023-01-19T19:06:33.027Z,93793.34
2023-01-19T19:09:00.164Z,93792.38
2023-01-19T19:11:28.016Z,93780.41
2023-01-19T19:14:01.022Z,93788.41
2023-01-19T19:16:29.850Z,93792.50
2023-01-19T19:18:56.992Z,93787.56
2023-01-19T19:21:25.723Z,93802.53
2023-01-19T19:23:57.301Z,93806.75
2023-01-19T19:26:25.777Z,93805.78
2023-01-19T19:28:52.864Z,93813.63
2023-01-19T19:31:22.408Z,93810.78
2023-01-19T19:33:51.433Z,93803.47
2023-01-19T19:36:20.177Z,93807.84
2023-01-19T19:38:55.825Z,93802.63
2023-01-19T19:41:25.217Z,93801.22
2023-01-19T19:43:52.129Z,93788.44
2023-01-19T19:46:20.559Z,93754.88
2023-01-19T19:48:51.177Z,93736.97
2023-01-19T19:51:22.795Z,93737.28
2023-01-19T19:53:51.933Z,93744.13
2023-01-19T19:56:21.647Z,93723.63
2023-01-19T19:59:03.402Z,93725.88
2023-01-19T20:01:33.715Z,93725.44
2023-01-19T20:04:07.322Z,93718.47
2023-01-19T20:06:45.548Z,93719.13
2023-01-19T20:09:14.286Z,93718.03
2023-01-19T20:11:42.758Z,93726.25
2023-01-19T20:14:11.875Z,93729.41
2023-01-19T20:16:39.492Z,93732.09
2023-01-19T20:19:06.911Z,93737.91
2023-01-19T20:21:36.584Z,93747.03
2023-01-19T20:24:07.036Z,93751.94
2023-01-19T20:26:36.588Z,93747.34
2023-01-19T20:29:08.415Z,93754.44
2023-01-19T20:31:42.220Z,93737.72
2023-01-19T20:34:17.305Z,93739.31
2023-01-19T20:36:49.887Z,93744.66
2023-01-19T20:39:18.324Z,93737.72
2023-01-19T20:41:45.834Z,93725.44
2023-01-19T20:44:15.632Z,93725.44
2023-01-19T20:46:42.710Z,93723.22
2023-01-19T20:49:10.384Z,93717.53
2023-01-19T20:51:40.053Z,93715.84
2023-01-19T20:54:07.185Z,93704.44
2023-01-19T20:56:34.175Z,93685.50
2023-01-19T20:59:02.333Z,93667.84
2023-01-19T21:01:29.382Z,93664.84
2023-01-19T21:03:56.523Z,93694.19
2023-01-19T21:06:23.509Z,93715.84
2023-01-19T21:08:50.894Z,93719.00
2023-01-19T21:11:21.069Z,93714.28
2023-01-19T21:13:50.742Z,93713.81
2023-01-19T21:16:17.770Z,93698.47
2023-01-19T21:18:44.759Z,93696.25
2023-01-19T21:21:31.875Z,93709.16
2023-01-19T21:24:01.035Z,93734.31
2023-01-19T21:26:30.366Z,93751.75
2023-01-19T21:28:58.468Z,93761.00
2023-01-19T21:31:27.719Z,93752.31
2023-01-19T21:33:55.752Z,93738.28
2023-01-19T21:36:23.086Z,93730.56
2023-01-19T21:38:51.647Z,93718.41
2023-01-19T21:41:19.127Z,93717.50
2023-01-19T21:43:46.456Z,93714.19
2023-01-19T21:46:29.629Z,93703.63
2023-01-19T21:48:58.189Z,93697.06
2023-01-19T21:51:25.291Z,93676.41
2023-01-19T21:53:52.699Z,93674.84
2023-01-19T21:56:19.696Z,93657.78
2023-01-19T21:58:47.462Z,93649.25
2023-01-19T22:01:14.525Z,93639.63
2023-01-19T22:03:42.214Z,93632.75
2023-01-19T22:06:12.435Z,93642.72
2023-01-19T22:08:40.141Z,93645.09
2023-01-19T22:11:09.440Z,93645.53
2023-01-19T22:13:40.827Z,93655.78
2023-01-19T22:16:15.118Z,93656.88
2023-01-19T22:18:44.605Z,93632.75
2023-01-19T22:21:19.464Z,93644.94
2023-01-19T22:23:54.620Z,93656.13
2023-01-19T22:26:34.981Z,93644.31
2023-01-19T22:29:02.504Z,93624.63
2023-01-19T22:31:30.695Z,93644.66
2023-01-19T22:33:58.103Z,93635.34
2023-01-19T22:36:30.436Z,93616.28
2023-01-19T22:39:02.341Z,93618.94
2023-01-19T22:41:41.039Z,93610.28
2023-01-19T22:44:12.992Z,93618.31
2023-01-19T22:46:40.098Z,93611.38
2023-01-19T22:49:08.468Z,93615.00
2023-01-19T22:51:36.242Z,93612.16
2023-01-19T22:54:03.902Z,93615.50
2023-01-19T22:56:34.292Z,93608.88
2023-01-19T22:59:02.390Z,93618.34
2023-01-19T23:01:33.858Z,93606.66
2023-01-19T23:04:02.342Z,93610.31
2023-01-19T23:06:31.841Z,93610.16
2023-01-19T23:09:00.738Z,93614.88
2023-01-19T23:11:35.733Z,93627.19
2023-01-19T23:14:03.420Z,93630.66
2023-01-19T23:16:30.492Z,93637.28
2023-01-19T23:18:59.973Z,93651.19
2023-01-19T23:21:29.581Z,93657.81
2023-01-19T23:24:01.878Z,93685.78
2023-01-19T23:26:30.959Z,93722.41
2023-01-19T23:29:01.900Z,93733.44
2023-01-19T23:31:49.442Z,93750.31
2023-01-19T23:34:17.569Z,93746.31
2023-01-19T23:36:45.297Z,93761.13
2023-01-19T23:39:17.851Z,93755.31
2023-01-19T23:41:45.181Z,93741.31
2023-01-19T23:44:26.938Z,93712.91
2023-01-19T23:46:53.908Z,93711.91
2023-01-19T23:49:20.897Z,93701.94
2023-01-19T23:51:47.858Z,93687.59
2023-01-19T23:54:14.896Z,93668.16
2023-01-19T23:56:42.921Z,93670.19
2023-01-19T23:59:12.601Z,93684.94
